Time;durP1;ratioP1;P1;durP2;ratioP2;P2;SDS_P1;SDS_P2;PMS_P1;PMS_P2;Temp;Humidity;BMP_temperature;BMP_pressure;BME280_temperature;BME280_humidity;BME280_pressure;Samples;Min_cycle;Max_cycle;Signal;HPM_P1;HPM_P2
2022/09/18 00:01:14;;;;;;;25.97;10.00;;;12.20;98.60;;;;;;5024681;28;21015;-61
2022/09/18 00:03:42;;;;;;;23.20;7.03;;;12.20;98.70;;;;;;5016891;28;20483;-60
2022/09/18 00:06:11;;;;;;;27.63;7.27;;;12.10;98.50;;;;;;5022552;28;20824;-61
2022/09/18 00:08:39;;;;;;;37.20;9.50;;;12.10;98.70;;;;;;5016903;28;20813;-61
2022/09/18 00:11:08;;;;;;;32.57;10.43;;;12.20;98.80;;;;;;5020839;28;21050;-61
2022/09/18 00:13:37;;;;;;;22.90;8.07;;;12.20;98.90;;;;;;5011468;28;20569;-62
2022/09/18 00:16:05;;;;;;;39.73;12.17;;;12.20;99.10;;;;;;5022434;28;20480;-61
2022/09/18 00:18:32;;;;;;;27.57;7.20;;;;;;;;;;5020088;28;20488;-61
2022/09/18 00:21:04;;;;;;;43.73;11.07;;;11.90;99.70;;;;;;5025157;28;20929;-62
2022/09/18 00:23:31;;;;;;;37.83;8.40;;;;;;;;;;5036339;28;20472;-62
2022/09/18 00:25:59;;;;;;;36.07;9.40;;;11.80;99.80;;;;;;5025285;28;20490;-62
2022/09/18 00:28:26;;;;;;;34.60;7.40;;;;;;;;;;5022090;28;20504;-61
2022/09/18 00:30:53;;;;;;;30.07;6.87;;;;;;;;;;5028247;28;20492;-62
2022/09/18 00:33:20;;;;;;;43.47;9.07;;;11.80;99.90;;;;;;5027754;28;20512;-62
2022/09/18 00:35:47;;;;;;;64.40;9.80;;;;;;;;;;5027367;28;20480;-61
2022/09/18 00:38:14;;;;;;;56.90;10.60;;;;;;;;;;5023897;28;20887;-62
2022/09/18 00:40:41;;;;;;;48.83;7.07;;;;;;;;;;5023925;28;20487;-61
2022/09/18 00:43:20;;;;;;;61.27;12.60;;;9.10;99.50;;;;;;5014860;28;21487;-62
2022/09/18 00:45:52;;;;;;;35.80;8.03;;;12.00;99.90;;;;;;5025578;28;20460;-61
2022/09/18 00:48:20;;;;;;;31.77;8.43;;;11.90;99.90;;;;;;5013911;28;20549;-61
2022/09/18 00:50:46;;;;;;;26.03;7.67;;;11.90;99.90;;;;;;5024420;28;20487;-62
2022/09/18 00:53:14;;;;;;;43.27;10.17;;;;;;;;;;5005660;28;20906;-62
2022/09/18 00:55:41;;;;;;;39.77;7.43;;;;;;;;;;5033248;28;20472;-62
2022/09/18 00:58:09;;;;;;;56.10;13.93;;;11.80;99.90;;;;;;5024393;28;20563;-62
2022/09/18 01:00:38;;;;;;;48.67;9.03;;;11.80;99.90;;;;;;5024645;28;20474;-61
2022/09/18 01:03:05;;;;;;;57.47;12.80;;;11.90;99.90;;;;;;5028259;28;20480;-61
2022/09/18 01:05:46;;;;;;;32.53;7.27;;;11.80;99.90;;;;;;5026229;28;20484;-61
2022/09/18 01:08:27;;;;;;;54.37;12.40;;;11.80;99.90;;;;;;5014460;28;20476;-61
2022/09/18 01:11:09;;;;;;;26.07;6.60;;;11.80;99.90;;;;;;5014790;28;20710;-61
2022/09/18 01:13:42;;;;;;;33.30;7.73;;;;;;;;;;5026786;28;20479;-61
2022/09/18 01:16:18;;;;;;;61.90;13.93;;;11.80;99.90;;;;;;5024727;28;20641;-62
2022/09/18 01:18:55;;;;;;;24.63;6.70;;;11.90;99.90;;;;;;5020948;28;20491;-61
2022/09/18 01:21:28;;;;;;;32.33;9.03;;;12.00;99.90;;;;;;5012951;28;20463;-61
2022/09/18 01:24:17;;;;;;;10.27;3.60;;;12.00;99.90;;;;;;5031992;28;20480;-61
2022/09/18 01:26:48;;;;;;;21.47;6.80;;;;;;;;;;5020247;28;20872;-61
2022/09/18 01:29:23;;;;;;;18.87;7.53;;;12.00;99.90;;;;;;5023601;28;20481;-62
2022/09/18 01:31:54;;;;;;;14.40;4.63;;;12.10;99.90;;;;;;5027187;28;20513;-62
2022/09/18 01:34:24;;;;;;;26.33;6.43;;;;;;;;;;5016286;28;20480;-62
2022/09/18 01:36:54;;;;;;;15.30;6.00;;;;;;;;;;5006630;28;20479;-61
2022/09/18 01:39:25;;;;;;;30.40;8.43;;;11.90;99.90;;;;;;4993886;28;20514;-61
2022/09/18 01:41:53;;;;;;;21.00;6.17;;;11.90;99.90;;;;;;5031525;28;20846;-61
2022/09/18 01:44:26;;;;;;;27.93;7.40;;;11.90;99.90;;;;;;5015940;28;20468;-60
2022/09/18 01:46:54;;;;;;;36.93;7.47;;;;;;;;;;5015025;28;20470;-60
2022/09/18 01:49:25;;;;;;;32.90;7.93;;;12.00;99.90;;;;;;5023569;28;20495;-61
2022/09/18 01:51:57;;;;;;;26.43;7.90;;;12.10;99.90;;;;;;5006203;28;20474;-61
2022/09/18 01:54:28;;;;;;;28.30;7.77;;;12.20;99.90;;;;;;5023895;28;20480;-63
2022/09/18 01:56:59;;;;;;;24.57;6.07;;;12.20;99.90;;;;;;5027320;28;20496;-61
2022/09/18 01:59:33;;;;;;;29.27;7.70;;;12.30;99.90;;;;;;5021910;28;21516;-61
2022/09/18 02:02:05;;;;;;;35.57;8.57;;;12.30;99.90;;;;;;5015219;28;21178;-61
2022/09/18 02:04:34;;;;;;;36.90;9.17;;;;;;;;;;5026552;28;20488;-61
2022/09/18 02:07:13;;;;;;;30.13;8.83;;;12.30;99.90;;;;;;5016870;28;21065;-61
2022/09/18 02:09:39;;;;;;;40.17;10.60;;;12.40;99.60;;;;;;5019645;28;20729;-61
2022/09/18 02:12:10;;;;;;;42.70;12.03;;;12.40;99.70;;;;;;5018921;28;20519;-61
2022/09/18 02:14:42;;;;;;;31.17;7.77;;;12.40;99.50;;;;;;5025172;28;20562;-61
2022/09/18 02:17:14;;;;;;;21.00;9.80;;;;;;;;;;5026981;28;20925;-61
2022/09/18 02:19:44;;;;;;;17.10;7.63;;;10.60;98.70;;;;;;5025196;28;20483;-61
2022/09/18 02:22:18;;;;;;;32.47;9.93;;;;;;;;;;5018707;28;20498;-61
2022/09/18 02:24:46;;;;;;;19.40;6.80;;;12.30;99.70;;;;;;5033907;28;20700;-61
2022/09/18 02:27:16;;;;;;;26.10;9.80;;;12.30;99.90;;;;;;5021663;28;20488;-62
2022/09/18 02:29:48;;;;;;;22.97;8.57;;;12.30;99.70;;;;;;5017992;28;20492;-61
2022/09/18 02:32:15;;;;;;;40.17;11.17;;;12.30;99.50;;;;;;5025107;28;20609;-61
2022/09/18 02:34:42;;;;;;;18.70;7.60;;;12.30;99.60;;;;;;5022804;28;20480;-61
2022/09/18 02:37:25;;;;;;;26.80;8.87;;;12.20;99.80;;;;;;5024694;28;20490;-61
2022/09/18 02:39:58;;;;;;;18.13;6.13;;;;;;;;;;5016489;28;20488;-61
2022/09/18 02:42:35;;;;;;;20.20;11.60;;;12.30;99.60;;;;;;5020333;28;20969;-61
2022/09/18 02:45:14;;;;;;;40.87;12.73;;;12.30;99.40;;;;;;5012832;28;20491;-61
2022/09/18 02:47:48;;;;;;;42.67;9.70;;;;;;;;;;5025766;28;20833;-61
2022/09/18 02:50:25;;;;;;;39.27;10.90;;;12.10;99.70;;;;;;5017892;28;21197;-62
2022/09/18 02:52:56;;;;;;;35.83;10.10;;;12.10;99.80;;;;;;5007833;28;21043;-61
2022/09/18 02:55:27;;;;;;;42.67;9.73;;;12.20;99.90;;;;;;5010035;28;20481;-61
2022/09/18 02:57:58;;;;;;;34.33;9.17;;;12.30;99.80;;;;;;5010570;28;21084;-61
2022/09/18 03:00:28;;;;;;;41.50;9.20;;;12.30;99.50;;;;;;5007533;28;20484;-62
2022/09/18 03:02:57;;;;;;;28.27;6.50;;;12.40;99.30;;;;;;5013599;28;20495;-62
2022/09/18 03:05:24;;;;;;;39.00;9.73;;;;;;;;;;5013523;28;20497;-62
2022/09/18 03:07:51;;;;;;;34.17;7.00;;;11.20;99.10;;;;;;5012759;28;21009;-62
2022/09/18 03:10:18;;;;;;;31.53;8.07;;;;;;;;;;5012545;28;20485;-63
2022/09/18 03:12:45;;;;;;;24.63;7.70;;;12.30;99.30;;;;;;5011871;28;20473;-63
2022/09/18 03:15:12;;;;;;;38.57;10.70;;;12.30;99.20;;;;;;5011360;28;20477;-63
2022/09/18 03:17:40;;;;;;;33.63;10.20;;;12.20;99.20;;;;;;5009783;28;20489;-63
2022/09/18 03:20:07;;;;;;;65.03;15.00;;;12.30;99.10;;;;;;5013895;28;20488;-62
2022/09/18 03:22:34;;;;;;;27.80;6.60;;;12.30;99.20;;;;;;5014407;28;20483;-63
2022/09/18 03:25:01;;;;;;;34.47;8.77;;;;;;;;;;5010365;28;21040;-62
2022/09/18 03:27:28;;;;;;;34.67;10.10;;;12.20;99.40;;;;;;5012683;28;20854;-63
2022/09/18 03:29:55;;;;;;;25.60;6.80;;;;;;;;;;5011478;28;20496;-63
2022/09/18 03:32:22;;;;;;;37.20;8.50;;;;;;;;;;5013094;28;20482;-62
2022/09/18 03:34:50;;;;;;;19.83;6.00;;;12.20;99.60;;;;;;5012265;28;20469;-62
2022/09/18 03:37:17;;;;;;;35.37;8.50;;;12.30;99.60;;;;;;5012832;28;20485;-62
2022/09/18 03:39:44;;;;;;;27.80;6.87;;;;;;;;;;5010444;28;20617;-62
2022/09/18 03:42:11;;;;;;;36.37;10.53;;;;;;;;;;5017998;28;20486;-62
2022/09/18 03:44:38;;;;;;;36.73;8.70;;;12.20;99.20;;;;;;5012667;28;20821;-61
2022/09/18 03:47:05;;;;;;;57.00;12.90;;;;;;;;;;5013457;28;20485;-62
2022/09/18 03:49:32;;;;;;;32.40;8.37;;;;;;;;;;5012788;28;20493;-62
2022/09/18 03:52:00;;;;;;;28.40;8.20;;;12.20;99.10;;;;;;5014503;28;20497;-61
2022/09/18 03:54:27;;;;;;;27.50;7.83;;;12.20;99.10;;;;;;5018385;28;20496;-62
2022/09/18 03:56:53;;;;;;;21.40;6.87;;;12.20;99.10;;;;;;5014819;28;20481;-62
2022/09/18 03:59:20;;;;;;;37.73;9.33;;;12.10;98.90;;;;;;5013855;28;20828;-62
2022/09/18 04:01:47;;;;;;;18.00;5.53;;;12.20;99.10;;;;;;5013777;28;20489;-62
2022/09/18 04:04:14;;;;;;;36.50;9.97;;;;;;;;;;5015855;28;20683;-62
2022/09/18 04:06:41;;;;;;;23.73;7.63;;;;;;;;;;5016500;28;20477;-62
2022/09/18 04:09:09;;;;;;;47.80;11.80;;;12.10;99.40;;;;;;5001079;28;20489;-61
2022/09/18 04:11:36;;;;;;;27.00;7.80;;;12.10;99.30;;;;;;5015275;28;20477;-62
2022/09/18 04:14:03;;;;;;;53.17;12.40;;;12.00;99.50;;;;;;5014981;28;21188;-62
2022/09/18 04:16:30;;;;;;;36.33;7.33;;;12.00;99.20;;;;;;5014338;28;20496;-62
2022/09/18 04:18:57;;;;;;;26.00;7.70;;;11.90;99.20;;;;;;5014658;28;20912;-62
2022/09/18 04:21:24;;;;;;;17.03;5.73;;;;;;;;;;5018454;28;20839;-62
2022/09/18 04:23:51;;;;;;;22.10;8.57;;;;;;;;;;5016663;28;20481;-62
2022/09/18 04:26:19;;;;;;;30.97;7.53;;;12.00;99.30;;;;;;5015316;28;20504;-62
2022/09/18 04:28:45;;;;;;;14.40;5.47;;;12.10;99.30;;;;;;5015342;28;20496;-61
2022/09/18 04:31:12;;;;;;;27.00;9.90;;;12.10;98.90;;;;;;5018661;28;20488;-62
2022/09/18 04:33:39;;;;;;;23.60;7.40;;;12.00;99.20;;;;;;5017594;28;20574;-62
2022/09/18 04:36:06;;;;;;;50.87;14.60;;;12.10;99.10;;;;;;5015453;28;20476;-62
2022/09/18 04:38:33;;;;;;;20.13;6.67;;;12.00;99.10;;;;;;5015441;28;20493;-62
2022/09/18 04:41:00;;;;;;;14.03;5.47;;;11.90;99.20;;;;;;5018480;28;20489;-62
2022/09/18 04:43:28;;;;;;;23.87;6.80;;;11.80;99.30;;;;;;5016032;28;20485;-61
2022/09/18 04:45:55;;;;;;;26.57;7.20;;;11.80;99.40;;;;;;5019730;28;20491;-61
2022/09/18 04:48:23;;;;;;;33.73;9.13;;;11.60;99.50;;;;;;5003679;28;20551;-62
2022/09/18 04:50:50;;;;;;;39.00;8.50;;;;;;;;;;5029695;28;20865;-62
2022/09/18 04:53:17;;;;;;;53.73;10.40;;;;;;;;;;5014437;28;21035;-62
2022/09/18 04:55:44;;;;;;;54.77;9.03;;;;;;;;;;5020825;28;20567;-62
2022/09/18 04:58:11;;;;;;;73.07;11.10;;;;;;;;;;5015712;28;20882;-62
2022/09/18 05:00:40;;;;;;;86.50;10.67;;;;;;;;;;5014220;28;20813;-61
2022/09/18 05:03:08;;;;;;;111.20;17.00;;;11.40;99.90;;;;;;5016300;28;20489;-62
2022/09/18 05:05:35;;;;;;;43.40;7.83;;;;;;;;;;5016908;28;20485;-62
2022/09/18 05:08:02;;;;;;;52.83;10.60;;;11.30;99.90;;;;;;5014358;28;20480;-62
2022/09/18 05:10:29;;;;;;;34.93;5.93;;;;;;;;;;5014503;28;20489;-62
2022/09/18 05:12:56;;;;;;;28.20;8.53;;;11.30;99.90;;;;;;5015929;28;20686;-62
2022/09/18 05:15:23;;;;;;;31.37;7.70;;;11.40;99.90;;;;;;5015961;28;20486;-62
2022/09/18 05:17:58;;;;;;;20.27;7.00;;;11.30;99.90;;;;;;5015166;28;20481;-61
2022/09/18 05:20:25;;;;;;;28.20;6.13;;;;;;;;;;5012765;28;20473;-61
2022/09/18 05:22:52;;;;;;;20.97;6.70;;;;;;;;;;5017005;28;20473;-62
2022/09/18 05:25:20;;;;;;;24.80;5.80;;;;;;;;;;5016299;28;21007;-62
2022/09/18 05:27:53;;;;;;;26.10;6.10;;;11.30;99.90;;;;;;5009301;28;20557;-62
2022/09/18 05:30:20;;;;;;;44.63;6.90;;;;;;;;;;5005712;28;20480;-61
2022/09/18 05:32:55;;;;;;;37.30;6.20;;;11.40;99.90;;;;;;5016618;28;20485;-62
2022/09/18 05:35:22;;;;;;;51.27;8.93;;;;;;;;;;5005727;28;20572;-62
2022/09/18 05:37:50;;;;;;;42.43;8.83;;;;;;;;;;5015583;28;20653;-62
2022/09/18 05:40:17;;;;;;;43.97;7.57;;;;;;;;;;5004208;28;20600;-61
2022/09/18 05:42:47;;;;;;;39.03;6.83;;;11.30;99.90;;;;;;5015876;28;20481;-61
2022/09/18 05:45:14;;;;;;;123.40;12.03;;;;;;;;;;5010948;28;20484;-61
2022/09/18 05:47:41;;;;;;;79.80;11.70;;;;;;;;;;5011401;28;21186;-61
2022/09/18 05:50:10;;;;;;;121.43;13.80;;;;;;;;;;5015481;28;20485;-61
2022/09/18 05:52:37;;;;;;;56.73;9.20;;;;;;;;;;5014737;28;20489;-61
2022/09/18 05:55:05;;;;;;;58.23;13.13;;;11.10;99.90;;;;;;5016006;28;20492;-61
2022/09/18 05:57:31;;;;;;;38.10;9.67;;;13.60;99.90;;;;;;5014003;28;20524;-60
2022/09/18 05:59:58;;;;;;;23.80;6.27;;;;;;;;;;5006814;28;20489;-61
2022/09/18 06:02:25;;;;;;;20.93;7.70;;;10.90;99.90;;;;;;5028734;28;20477;-61
2022/09/18 06:04:52;;;;;;;18.43;6.60;;;10.80;99.90;;;;;;5014379;28;20475;-61
2022/09/18 06:07:20;;;;;;;21.80;5.43;;;10.80;99.90;;;;;;5017456;28;20574;-61
2022/09/18 06:09:47;;;;;;;22.50;6.40;;;10.70;99.90;;;;;;5014457;28;20488;-61
2022/09/18 06:12:14;;;;;;;27.13;9.53;;;;;;;;;;5012146;28;20878;-61
2022/09/18 06:14:41;;;;;;;21.50;6.10;;;10.70;99.90;;;;;;5016545;28;20565;-61
2022/09/18 06:17:08;;;;;;;41.57;11.60;;;;;;;;;;5017093;28;21040;-62
2022/09/18 06:19:35;;;;;;;25.77;8.03;;;10.60;99.90;;;;;;5014143;28;20481;-61
2022/09/18 06:22:01;;;;;;;16.00;4.80;;;10.60;99.90;;;;;;5016940;28;20555;-61
2022/09/18 06:24:29;;;;;;;21.40;7.20;;;10.60;99.90;;;;;;5014831;28;20477;-61
2022/09/18 06:26:56;;;;;;;22.37;7.47;;;10.70;99.90;;;;;;5013745;28;20844;-60
2022/09/18 06:29:23;;;;;;;20.10;4.60;;;10.70;99.90;;;;;;5015252;28;20481;-61
2022/09/18 06:31:50;;;;;;;14.80;5.23;;;10.80;99.90;;;;;;5000237;28;21617;-61
2022/09/18 06:34:16;;;;;;;19.10;6.80;;;10.90;99.90;;;;;;5017127;28;21057;-61
2022/09/18 06:36:43;;;;;;;26.73;7.10;;;10.90;99.90;;;;;;5009676;28;20500;-62
2022/09/18 06:39:10;;;;;;;34.73;12.40;;;10.90;99.90;;;;;;5012008;28;20485;-63
2022/09/18 06:41:38;;;;;;;16.73;6.10;;;11.00;99.90;;;;;;5014181;28;21182;-61
2022/09/18 06:44:05;;;;;;;32.70;8.10;;;11.20;99.90;;;;;;5012170;28;20477;-62
2022/09/18 06:46:31;;;;;;;16.27;5.83;;;11.30;99.90;;;;;;5011604;28;20919;-61
2022/09/18 06:48:58;;;;;;;14.97;5.13;;;;;;;;;;5009266;28;20480;-63
2022/09/18 06:51:25;;;;;;;17.03;5.03;;;11.40;99.90;;;;;;5015037;28;20513;-63
2022/09/18 06:53:52;;;;;;;15.83;5.27;;;11.50;99.80;;;;;;5013785;28;20469;-62
2022/09/18 06:56:18;;;;;;;17.63;5.40;;;11.60;99.70;;;;;;5004218;28;20487;-62
2022/09/18 06:58:46;;;;;;;18.53;5.60;;;11.60;99.70;;;;;;5020981;28;20510;-62
2022/09/18 07:01:13;;;;;;;24.77;7.63;;;11.60;99.60;;;;;;5012743;28;20481;-63
2022/09/18 07:03:40;;;;;;;17.23;6.80;;;11.60;99.50;;;;;;5014434;28;20492;-63
2022/09/18 07:06:09;;;;;;;38.80;10.13;;;11.60;99.90;;;;;;5012877;28;20879;-62
2022/09/18 07:08:35;;;;;;;23.23;7.03;;;11.80;99.70;;;;;;5017148;28;20485;-63
2022/09/18 07:11:03;;;;;;;39.37;9.33;;;12.40;99.20;;;;;;5014399;28;20481;-62
2022/09/18 07:13:31;;;;;;;23.37;6.77;;;13.00;98.80;;;;;;5015097;28;20680;-62
2022/09/18 07:15:59;;;;;;;32.03;7.43;;;13.10;97.40;;;;;;5013824;28;20560;-62
2022/09/18 07:18:26;;;;;;;23.80;7.20;;;13.00;97.50;;;;;;5012915;28;20477;-63
2022/09/18 07:20:53;;;;;;;27.33;5.90;;;12.80;97.10;;;;;;5014042;28;20484;-63
2022/09/18 07:23:20;;;;;;;20.90;6.00;;;12.80;97.40;;;;;;5015173;28;20493;-62
2022/09/18 07:25:47;;;;;;;16.83;5.50;;;12.70;97.70;;;;;;5013990;28;21020;-62
2022/09/18 07:28:14;;;;;;;29.53;6.00;;;;;;;;;;5015669;28;20491;-62
2022/09/18 07:30:41;;;;;;;29.37;6.90;;;;;;;;;;5014314;28;20477;-63
2022/09/18 07:33:10;;;;;;;47.37;9.90;;;12.50;98.10;;;;;;5014237;28;20492;-62
2022/09/18 07:35:37;;;;;;;23.17;7.50;;;12.50;98.00;;;;;;5011394;28;20749;-62
2022/09/18 07:38:06;;;;;;;45.30;11.83;;;12.50;97.80;;;;;;5006021;28;20899;-61
2022/09/18 07:40:33;;;;;;;43.03;11.17;;;12.70;97.90;;;;;;5013010;28;20846;-61
2022/09/18 07:43:01;;;;;;;27.57;8.00;;;13.00;97.90;;;;;;5014262;28;20484;-62
2022/09/18 07:45:27;;;;;;;23.23;4.80;;;13.40;97.60;;;;;;5001652;28;20479;-61
2022/09/18 07:47:55;;;;;;;27.13;6.87;;;;;;;;;;5011537;28;20996;-61
2022/09/18 07:50:23;;;;;;;27.60;6.80;;;16.90;97.70;;;;;;5013812;28;20492;-62
2022/09/18 07:52:51;;;;;;;23.40;7.17;;;14.20;95.80;;;;;;5014479;28;20488;-61
2022/09/18 07:55:19;;;;;;;13.40;5.43;;;14.30;95.90;;;;;;5012859;28;20493;-62
2022/09/18 07:57:46;;;;;;;12.27;6.80;;;14.30;95.40;;;;;;5013076;28;20616;-60
2022/09/18 08:00:14;;;;;;;25.10;8.70;;;14.30;95.60;;;;;;5013451;28;20495;-61
2022/09/18 08:02:41;;;;;;;15.73;5.20;;;;;;;;;;5014585;28;20484;-60
2022/09/18 08:05:08;;;;;;;28.23;9.27;;;14.30;95.50;;;;;;5015854;28;20977;-61
2022/09/18 08:07:36;;;;;;;20.10;8.13;;;14.20;95.40;;;;;;5013772;28;20980;-62
2022/09/18 08:10:04;;;;;;;23.50;6.73;;;14.10;95.30;;;;;;5013670;28;20673;-61
2022/09/18 08:12:31;;;;;;;23.37;5.93;;;;;;;;;;5010933;28;20472;-62
2022/09/18 08:14:58;;;;;;;14.10;6.03;;;;;;;;;;5011736;28;20547;-61
2022/09/18 08:17:25;;;;;;;15.60;6.53;;;14.10;95.50;;;;;;5010788;28;20619;-61
2022/09/18 08:19:52;;;;;;;16.83;5.77;;;14.10;95.90;;;;;;5013122;28;20743;-61
2022/09/18 08:22:19;;;;;;;17.80;4.67;;;14.30;95.80;;;;;;5012931;28;20480;-63
2022/09/18 08:24:47;;;;;;;11.73;5.43;;;14.50;95.80;;;;;;5006329;28;20543;-63
2022/09/18 08:27:13;;;;;;;25.63;7.90;;;14.50;95.10;;;;;;5015332;28;20499;-63
2022/09/18 08:29:41;;;;;;;31.33;8.90;;;14.70;94.90;;;;;;5021958;28;21095;-63
2022/09/18 08:32:08;;;;;;;36.50;8.97;;;14.90;95.10;;;;;;5014092;28;20492;-63
2022/09/18 08:34:34;;;;;;;22.13;5.43;;;14.90;95.00;;;;;;5013144;28;20477;-63
2022/09/18 08:37:01;;;;;;;32.87;9.80;;;;;;;;;;5013154;28;20473;-63
2022/09/18 08:39:28;;;;;;;21.53;4.40;;;15.30;95.30;;;;;;5013207;28;20489;-63
2022/09/18 08:42:13;;;;;;;59.77;8.53;;;;;;;;;;5016890;28;20477;-63
2022/09/18 08:44:46;;;;;;;48.90;7.80;;;15.50;93.60;;;;;;5008612;28;20477;-63
2022/09/18 08:47:19;;;;;;;149.17;15.03;;;15.60;93.80;;;;;;5016615;28;20468;-63
2022/09/18 08:49:48;;;;;;;71.17;10.90;;;;;;;;;;5013152;28;20487;-62
2022/09/18 08:52:17;;;;;;;39.50;6.47;;;15.80;93.20;;;;;;5018413;28;20847;-62
2022/09/18 08:54:48;;;;;;;27.13;6.67;;;15.90;93.70;;;;;;5017310;28;20477;-62
2022/09/18 08:57:21;;;;;;;28.47;7.70;;;16.00;92.60;;;;;;5011004;28;20763;-63
2022/09/18 08:59:51;;;;;;;21.70;5.13;;;16.30;93.20;;;;;;5008436;28;20872;-64
2022/09/18 09:02:31;;;;;;;13.43;5.53;;;;;;;;;;5014220;28;20482;-63
2022/09/18 09:05:02;;;;;;;11.00;4.20;;;;;;;;;;5016779;28;20520;-62
2022/09/18 09:08:16;;;;;;;10.23;6.40;;;16.40;91.60;;;;;;5010753;28;20505;-61
2022/09/18 09:10:47;;;;;;;8.33;4.50;;;16.30;91.20;;;;;;5015003;28;21052;-62
2022/09/18 09:13:49;;;;;;;14.50;5.50;;;16.30;92.90;;;;;;5018891;28;20843;-61
2022/09/18 09:16:17;;;;;;;14.13;4.60;;;16.20;91.40;;;;;;5012845;28;20505;-62
2022/09/18 09:18:58;;;;;;;13.40;4.63;;;16.10;91.40;;;;;;5003027;28;20469;-61
2022/09/18 09:21:41;;;;;;;14.90;4.20;;;16.00;90.80;;;;;;5013962;28;20485;-60
2022/09/18 09:24:25;;;;;;;14.00;7.00;;;16.10;91.20;;;;;;5015969;28;20712;-61
2022/09/18 09:26:55;;;;;;;12.77;4.07;;;16.10;91.70;;;;;;5006195;28;20474;-61
2022/09/18 09:29:28;;;;;;;10.33;4.00;;;16.10;91.00;;;;;;5015668;28;20481;-60
2022/09/18 09:31:58;;;;;;;22.43;3.60;;;16.10;89.80;;;;;;5016226;28;20555;-61
2022/09/18 09:34:29;;;;;;;16.67;4.87;;;16.20;89.00;;;;;;5017030;28;20481;-61
2022/09/18 09:36:58;;;;;;;13.43;4.80;;;13.70;87.90;;;;;;5014797;28;20837;-61
2022/09/18 09:39:29;;;;;;;14.90;3.73;;;16.20;90.20;;;;;;5015911;28;20501;-61
2022/09/18 09:42:02;;;;;;;9.33;4.70;;;17.10;90.50;;;;;;5016248;28;20481;-61
2022/09/18 09:44:35;;;;;;;9.33;4.67;;;;;;;;;;5017353;28;20489;-63
2022/09/18 09:47:13;;;;;;;19.50;6.90;;;16.70;90.00;;;;;;5017233;28;20473;-62
2022/09/18 09:49:52;;;;;;;9.10;5.13;;;16.90;90.40;;;;;;5015003;28;20831;-62
2022/09/18 09:52:23;;;;;;;8.63;4.73;;;17.00;90.00;;;;;;5002851;28;20477;-62
2022/09/18 09:54:53;;;;;;;13.90;4.80;;;17.10;89.00;;;;;;5011838;28;20762;-61
2022/09/18 09:57:25;;;;;;;15.23;4.80;;;17.10;88.10;;;;;;5015267;28;20535;-62
2022/09/18 10:00:05;;;;;;;10.53;5.20;;;17.20;87.90;;;;;;5007803;28;20516;-62
2022/09/18 10:02:40;;;;;;;16.23;4.50;;;17.10;88.20;;;;;;5017994;28;20567;-62
2022/09/18 10:05:15;;;;;;;28.43;10.27;;;;;;;;;;5006527;28;20473;-62
2022/09/18 10:07:48;;;;;;;37.30;5.77;;;17.20;90.00;;;;;;5004427;28;20901;-62
2022/09/18 10:10:22;;;;;;;20.53;7.77;;;17.30;88.60;;;;;;5015112;28;20469;-62
2022/09/18 10:12:54;;;;;;;16.33;5.70;;;17.30;87.80;;;;;;4999664;28;20484;-63
2022/09/18 10:15:26;;;;;;;16.43;4.50;;;17.30;86.60;;;;;;4995616;28;20476;-63
2022/09/18 10:17:57;;;;;;;13.17;6.00;;;17.00;86.10;;;;;;5016328;28;20500;-62
2022/09/18 10:20:27;;;;;;;16.03;4.83;;;16.80;85.10;;;;;;4995811;28;21128;-64
2022/09/18 10:22:56;;;;;;;15.60;6.00;;;16.80;85.30;;;;;;5000754;28;20481;-63
2022/09/18 10:25:29;;;;;;;16.23;6.70;;;16.90;87.20;;;;;;5014369;28;20481;-64
2022/09/18 10:27:56;;;;;;;11.30;4.90;;;17.00;86.50;;;;;;5014278;28;20480;-63
2022/09/18 10:30:24;;;;;;;16.90;6.20;;;17.00;85.70;;;;;;5015032;28;20473;-64
2022/09/18 10:32:51;;;;;;;35.73;7.03;;;17.00;87.00;;;;;;5013256;28;20493;-63
2022/09/18 10:35:41;;;;;;;12.20;5.10;;;17.20;87.40;;;;;;5014572;28;20490;-63
2022/09/18 10:38:28;;;;;;;29.00;8.13;;;17.30;87.20;;;;;;5009747;28;20539;-63
2022/09/18 10:40:55;;;;;;;16.27;4.00;;;17.20;84.60;;;;;;4995552;28;20484;-63
2022/09/18 10:43:22;;;;;;;12.03;4.47;;;17.10;85.50;;;;;;5016376;28;20524;-62
2022/09/18 10:45:54;;;;;;;16.03;5.43;;;;;;;;;;5015090;28;20493;-62
2022/09/18 10:48:24;;;;;;;17.57;7.63;;;16.80;85.00;;;;;;5014365;28;20486;-63
2022/09/18 10:50:52;;;;;;;15.50;4.37;;;16.60;84.60;;;;;;5006763;28;22640;-63
2022/09/18 10:53:29;;;;;;;12.03;5.40;;;16.70;86.50;;;;;;5022968;28;20539;-62
2022/09/18 10:56:03;;;;;;;24.27;5.83;;;16.70;87.20;;;;;;5011829;28;20509;-62
2022/09/18 10:58:31;;;;;;;12.43;5.97;;;;;;;;;;5002607;28;20844;-63
2022/09/18 11:01:03;;;;;;;11.53;5.03;;;16.80;85.60;;;;;;5013051;28;20480;-63
2022/09/18 11:03:41;;;;;;;11.47;3.53;;;16.80;84.60;;;;;;5016436;28;20473;-62
2022/09/18 11:06:15;;;;;;;24.20;9.70;;;16.80;84.70;;;;;;5006922;28;20949;-62
2022/09/18 11:08:45;;;;;;;17.93;5.90;;;16.90;84.10;;;;;;5015885;28;21002;-64
2022/09/18 11:11:22;;;;;;;17.83;8.40;;;16.80;84.60;;;;;;5014899;28;21167;-64
2022/09/18 11:13:53;;;;;;;15.93;5.30;;;16.80;85.30;;;;;;5008248;28;20476;-63
2022/09/18 11:16:27;;;;;;;12.70;5.70;;;16.70;85.10;;;;;;5014282;28;20473;-64
2022/09/18 11:19:03;;;;;;;17.50;4.57;;;16.50;84.10;;;;;;5011881;28;20895;-63
2022/09/18 11:21:30;;;;;;;11.83;4.07;;;16.50;85.00;;;;;;5012566;28;20465;-61
2022/09/18 11:24:02;;;;;;;9.73;4.20;;;16.50;85.40;;;;;;5013379;28;20477;-61
2022/09/18 11:26:31;;;;;;;22.03;6.57;;;16.50;86.10;;;;;;5003257;28;21183;-62
2022/09/18 11:29:01;;;;;;;19.60;5.47;;;16.50;85.10;;;;;;5010319;28;20535;-62
2022/09/18 11:31:39;;;;;;;18.50;4.37;;;16.50;85.40;;;;;;5015034;28;20538;-62
2022/09/18 11:34:11;;;;;;;23.33;9.57;;;;;;;;;;5002415;28;21138;-61
2022/09/18 11:36:39;;;;;;;13.97;5.43;;;16.40;85.50;;;;;;5012505;28;20500;-62
2022/09/18 11:39:13;;;;;;;25.83;9.10;;;16.40;85.00;;;;;;5010080;28;20498;-62
2022/09/18 11:41:41;;;;;;;10.60;4.47;;;16.20;83.00;;;;;;5014788;28;20501;-63
2022/09/18 11:44:17;;;;;;;21.80;8.50;;;16.30;83.10;;;;;;5009148;28;20591;-63
2022/09/18 11:46:51;;;;;;;21.17;6.87;;;;;;;;;;5013317;28;20484;-62
2022/09/18 11:49:23;;;;;;;9.20;4.77;;;16.30;82.70;;;;;;5016505;28;20846;-62
2022/09/18 11:51:56;;;;;;;17.73;5.80;;;16.40;83.90;;;;;;5015131;28;21008;-62
2022/09/18 11:54:29;;;;;;;14.93;6.17;;;16.50;84.10;;;;;;5014135;28;20618;-62
2022/09/18 11:56:59;;;;;;;26.30;7.20;;;;;;;;;;5009252;28;20477;-62
2022/09/18 11:59:31;;;;;;;11.10;4.17;;;16.70;84.80;;;;;;5009386;28;20492;-62
2022/09/18 12:02:02;;;;;;;24.83;6.30;;;;;;;;;;5013700;28;20477;-63
2022/09/18 12:04:34;;;;;;;12.23;5.30;;;;;;;;;;5016103;28;20477;-61
2022/09/18 12:07:11;;;;;;;17.13;6.57;;;17.00;81.60;;;;;;5013005;28;20481;-62
2022/09/18 12:09:42;;;;;;;15.10;4.83;;;;;;;;;;5004722;28;20493;-62
2022/09/18 12:12:14;;;;;;;15.23;7.40;;;17.10;81.90;;;;;;5028325;28;20481;-61
2022/09/18 12:14:46;;;;;;;23.10;6.33;;;17.10;81.20;;;;;;5010396;28;21065;-63
2022/09/18 12:17:22;;;;;;;15.30;8.10;;;17.10;82.00;;;;;;5023166;28;20491;-62
2022/09/18 12:19:52;;;;;;;11.03;4.73;;;;;;;;;;5003242;28;20484;-61
2022/09/18 12:22:21;;;;;;;11.93;5.87;;;;;;;;;;5014632;28;20701;-63
2022/09/18 12:24:48;;;;;;;15.13;5.53;;;;;;;;;;5014978;28;20489;-63
2022/09/18 12:27:26;;;;;;;12.60;6.00;;;16.80;79.90;;;;;;5015652;28;20489;-63
2022/09/18 12:30:04;;;;;;;12.20;5.07;;;17.10;80.80;;;;;;5010048;28;20904;-63
2022/09/18 12:32:49;;;;;;;16.40;4.13;;;17.10;82.20;;;;;;5018043;28;20472;-62
2022/09/18 12:35:18;;;;;;;19.73;6.20;;;;;;;;;;5005657;28;20500;-62
2022/09/18 12:37:55;;;;;;;15.23;6.00;;;17.20;82.00;;;;;;5012718;28;20485;-62
2022/09/18 12:40:37;;;;;;;9.83;4.50;;;17.40;81.00;;;;;;5017177;28;20500;-62
2022/09/18 12:43:28;;;;;;;18.30;6.40;;;17.30;80.10;;;;;;4993956;28;20512;-63
2022/09/18 12:46:05;;;;;;;8.70;3.57;;;;;;;;;;5010884;28;20488;-63
2022/09/18 12:48:43;;;;;;;11.47;4.83;;;;;;;;;;5015066;28;20473;-62
2022/09/18 12:51:19;;;;;;;18.87;8.13;;;;;;;;;;5001933;28;20477;-62
2022/09/18 12:53:53;;;;;;;11.00;4.43;;;17.40;79.20;;;;;;5017540;28;20480;-62
2022/09/18 12:56:35;;;;;;;8.93;4.97;;;17.50;78.30;;;;;;5017085;28;20727;-61
2022/09/18 12:59:16;;;;;;;16.57;7.57;;;17.40;77.40;;;;;;5013847;28;20487;-62
2022/09/18 13:01:48;;;;;;;12.70;4.50;;;17.30;78.10;;;;;;5014802;28;20622;-63
2022/09/18 13:04:21;;;;;;;21.97;5.27;;;;;;;;;;5010829;28;20493;-62
2022/09/18 13:06:54;;;;;;;11.73;5.13;;;17.50;79.50;;;;;;5016725;28;20831;-63
2022/09/18 13:09:24;;;;;;;30.87;4.50;;;17.70;79.60;;;;;;5013394;28;20525;-62
2022/09/18 13:11:55;;;;;;;14.40;5.03;;;17.80;78.10;;;;;;5013489;28;20485;-62
2022/09/18 13:14:26;;;;;;;13.37;4.70;;;17.90;78.50;;;;;;5014717;28;20520;-64
2022/09/18 13:16:57;;;;;;;11.77;4.90;;;17.70;76.60;;;;;;5011469;28;21327;-63
2022/09/18 13:19:28;;;;;;;15.20;8.40;;;17.70;75.20;;;;;;5003047;28;20526;-63